Time;durP1;ratioP1;P1;durP2;ratioP2;P2;SDS_P1;SDS_P2;PMS_P1;PMS_P2;Temp;Humidity;BMP_temperature;BMP_pressure;BME280_temperature;BME280_humidity;BME280_pressure;Samples;Min_cycle;Max_cycle;Signal;HPM_P1;HPM_P2
2022/06/04 00:00:43;;;;;;;;;;;19.20;99.90;;;;;;5055673;28;19916;-81
2022/06/04 00:03:09;;;;;;;;;;;19.10;99.90;;;;;;5077805;28;19983;-81
2022/06/04 00:05:37;;;;;;;;;;;19.00;99.90;;;;;;5055065;28;20388;-82
2022/06/04 00:08:04;;;;;;;;;;;19.00;99.90;;;;;;5059632;28;20358;-81
2022/06/04 00:16:00;;;;;;;;;;;18.80;99.90;;;;;;5055765;28;19943;-81
2022/06/04 00:18:26;;;;;;;;;;;18.80;99.90;;;;;;5058346;28;19912;-81
2022/06/04 00:20:53;;;;;;;;;;;18.80;99.90;;;;;;5057495;28;19959;-81
2022/06/04 00:23:18;;;;;;;;;;;18.70;99.90;;;;;;5055145;28;19916;-81
2022/06/04 00:25:47;;;;;;;;;;;18.70;99.90;;;;;;5055588;28;19921;-81
2022/06/04 00:28:12;;;;;;;;;;;18.70;99.90;;;;;;5065871;28;19909;-81
2022/06/04 00:30:38;;;;;;;;;;;18.60;99.90;;;;;;5067013;28;20047;-81
2022/06/04 00:33:04;;;;;;;;;;;18.60;99.90;;;;;;5062084;28;19971;-81
2022/06/04 00:35:29;;;;;;;;;;;18.60;99.90;;;;;;5059487;28;19940;-81
2022/06/04 00:37:55;;;;;;;;;;;18.60;99.90;;;;;;5068765;28;19916;-81
2022/06/04 00:40:27;;;;;;;;;;;18.60;99.90;;;;;;5082348;28;19909;-82
2022/06/04 00:42:54;;;;;;;;;;;18.60;99.90;;;;;;5080066;28;19919;-82
2022/06/04 00:45:32;;;;;;;;;;;18.60;99.90;;;;;;5065950;28;20002;-81
2022/06/04 00:47:58;;;;;;;;;;;18.60;99.90;;;;;;5081645;28;19917;-81
2022/06/04 00:50:23;;;;;;;;;;;18.50;99.90;;;;;;5062717;28;19913;-81
2022/06/04 00:52:50;;;;;;;;;;;18.50;99.90;;;;;;5065477;28;19909;-81
2022/06/04 00:55:16;;;;;;;;;;;18.50;99.90;;;;;;5055755;28;20316;-81
2022/06/04 00:57:48;;;;;;;;;;;18.50;99.90;;;;;;5052771;28;19909;-82
2022/06/04 01:00:15;;;;;;;;;;;18.40;99.90;;;;;;5067434;28;19913;-81
2022/06/04 01:02:50;;;;;;;;;;;18.40;99.90;;;;;;5070607;28;19979;-82
2022/06/04 01:05:34;;;;;;;;;;;18.40;99.90;;;;;;5069857;28;19916;-81
2022/06/04 01:07:59;;;;;;;;;;;18.30;99.90;;;;;;5057449;28;20330;-81
2022/06/04 01:10:38;;;;;;;;;;;18.30;99.90;;;;;;5070311;28;19912;-81
2022/06/04 01:13:19;;;;;;;;;;;18.30;99.90;;;;;;5049985;28;19966;-81
2022/06/04 01:15:50;;;;;;;;;;;18.30;99.90;;;;;;5075014;28;19912;-81
2022/06/04 01:18:23;;;;;;;;;;;18.20;99.90;;;;;;5059304;28;19909;-81
2022/06/04 01:20:55;;;;;;;;;;;18.20;99.90;;;;;;5050867;28;20269;-81
2022/06/04 01:23:40;;;;;;;;;;;18.20;99.90;;;;;;5071495;28;20291;-81
2022/06/04 01:26:24;;;;;;;;;;;18.10;99.90;;;;;;5060272;28;19916;-81
2022/06/04 01:28:52;;;;;;;;;;;18.10;99.90;;;;;;5068879;28;20479;-81
2022/06/04 01:31:20;;;;;;;;;;;18.10;99.90;;;;;;5054781;28;19913;-81
2022/06/04 01:33:58;;;;;;;;;;;18.10;99.90;;;;;;5058175;28;19909;-81
2022/06/04 01:36:29;;;;;;;;;;;18.00;99.90;;;;;;5068197;28;19924;-81
2022/06/04 01:38:57;;;;;;;;;;;18.00;99.90;;;;;;5068774;28;19987;-81
2022/06/04 01:41:29;;;;;;;;;;;18.00;99.90;;;;;;5057904;28;20405;-81
2022/06/04 01:44:21;;;;;;;;;;;18.00;99.90;;;;;;5063752;28;19920;-82
2022/06/04 01:46:51;;;;;;;;;;;17.90;99.90;;;;;;5051294;28;19917;-81
2022/06/04 01:49:22;;;;;;;;;;;17.90;99.90;;;;;;5066776;28;20330;-81
2022/06/04 01:51:48;;;;;;;;;;;17.90;99.90;;;;;;5050181;28;19913;-81
2022/06/04 01:54:22;;;;;;;;;;;17.90;99.90;;;;;;5053380;28;19967;-81
2022/06/04 01:56:50;;;;;;;;;;;17.90;99.90;;;;;;5067119;28;19924;-81
2022/06/04 01:59:28;;;;;;;;;;;17.80;99.90;;;;;;5054254;28;19909;-81
2022/06/04 02:01:56;;;;;;;;;;;17.80;99.90;;;;;;5055314;28;19959;-81
2022/06/04 02:04:31;;;;;;;;;;;17.80;99.90;;;;;;5063507;28;19909;-81
2022/06/04 02:09:45;;;;;;;;;;;17.60;99.90;;;;;;5052368;28;19920;-81
2022/06/04 02:12:11;;;;;;;;;;;17.50;99.90;;;;;;5066488;28;19923;-81
2022/06/04 02:14:38;;;;;;;;;;;17.50;99.90;;;;;;5063771;28;20276;-82
2022/06/04 02:17:08;;;;;;;;;;;17.50;99.90;;;;;;5073399;28;20007;-81
2022/06/04 02:19:33;;;;;;;;;;;17.50;99.90;;;;;;5057243;28;19917;-81
2022/06/04 02:21:59;;;;;;;;;;;17.40;99.90;;;;;;5054904;28;19913;-81
2022/06/04 02:24:25;;;;;;;;;;;17.40;99.90;;;;;;5059738;28;19908;-81
2022/06/04 02:26:50;;;;;;;;;;;17.30;99.90;;;;;;5060615;28;20013;-81
2022/06/04 02:29:16;;;;;;;;;;;17.20;99.90;;;;;;5062364;28;19916;-82
2022/06/04 02:32:04;;;;;;;;;;;17.10;99.90;;;;;;5062459;28;19988;-81
2022/06/04 02:34:34;;;;;;;;;;;17.00;99.90;;;;;;5077646;28;20317;-81
2022/06/04 02:37:09;;;;;;;;;;;17.00;99.90;;;;;;5060666;28;19912;-81
2022/06/04 02:39:37;;;;;;;;;;;16.90;99.90;;;;;;5051331;28;19935;-82
2022/06/04 02:42:09;;;;;;;;;;;16.80;99.90;;;;;;5068969;28;19917;-82
2022/06/04 02:44:41;;;;;;;;;;;16.70;99.90;;;;;;5080148;28;20011;-81
2022/06/04 02:47:15;;;;;;;;;;;16.70;99.90;;;;;;5062753;28;19913;-81
2022/06/04 02:49:53;;;;;;;;;;;16.70;99.90;;;;;;5069899;28;19909;-81
2022/06/04 02:52:19;;;;;;;;;;;16.60;99.90;;;;;;5067417;28;19913;-81
2022/06/04 02:54:48;;;;;;;;;;;16.60;99.90;;;;;;5059143;28;19916;-82
2022/06/04 02:57:14;;;;;;;;;;;16.60;99.90;;;;;;5069955;28;19921;-81
2022/06/04 02:59:41;;;;;;;;;;;16.60;99.90;;;;;;5049766;28;20059;-81
2022/06/04 03:02:08;;;;;;;;;;;16.50;99.90;;;;;;5054797;28;19959;-81
2022/06/04 03:04:49;;;;;;;;;;;16.50;99.90;;;;;;5066018;28;19913;-81
2022/06/04 03:07:15;;;;;;;;;;;16.50;99.90;;;;;;5066733;28;20179;-81
2022/06/04 03:09:40;;;;;;;;;;;16.50;99.90;;;;;;5058355;28;19913;-81
2022/06/04 03:12:06;;;;;;;;;;;16.40;99.90;;;;;;5055500;28;19919;-82
2022/06/04 03:14:32;;;;;;;;;;;16.40;99.90;;;;;;5069235;28;19999;-81
2022/06/04 03:16:57;;;;;;;;;;;16.30;99.90;;;;;;5060582;28;20381;-81
2022/06/04 03:19:23;;;;;;;;;;;16.30;1.00;;;;;;5052203;28;19998;-81
2022/06/04 03:21:49;;;;;;;;;;;16.20;1.00;;;;;;5046975;28;19913;-81
2022/06/04 03:24:15;;;;;;;;;;;16.10;1.00;;;;;;5050431;28;19909;-81
2022/06/04 03:26:41;;;;;;;;;;;16.10;1.00;;;;;;5058542;28;19917;-82
2022/06/04 03:29:06;;;;;;;;;;;16.10;1.00;;;;;;5061001;28;19962;-81
2022/06/04 03:31:32;;;;;;;;;;;16.10;1.00;;;;;;5055681;28;19913;-81
2022/06/04 03:33:58;;;;;;;;;;;16.10;1.00;;;;;;5049443;28;19912;-81
2022/06/04 03:36:26;;;;;;;;;;;16.00;1.00;;;;;;5055421;28;19923;-81
2022/06/04 03:38:56;;;;;;;;;;;15.90;36.60;;;;;;5055290;28;20381;-81
2022/06/04 03:41:21;;;;;;;;;;;15.90;99.90;;;;;;5056490;28;19919;-81
2022/06/04 03:43:51;;;;;;;;;;;15.90;99.90;;;;;;5052758;28;19999;-81
2022/06/04 03:46:20;;;;;;;;;;;15.80;99.90;;;;;;5058839;28;20292;-81
2022/06/04 03:48:45;;;;;;;;;;;15.80;99.90;;;;;;5071205;28;19941;-81
2022/06/04 03:51:11;;;;;;;;;;;15.80;99.90;;;;;;5057810;28;20327;-82
2022/06/04 03:53:36;;;;;;;;;;;15.80;99.90;;;;;;5055530;28;19920;-81
2022/06/04 03:56:02;;;;;;;;;;;15.70;99.90;;;;;;5059454;28;19960;-81
2022/06/04 03:58:30;;;;;;;;;;;15.70;1.00;;;;;;5051493;28;20387;-81
2022/06/04 04:00:56;;;;;;;;;;;15.70;1.00;;;;;;5063330;28;19912;-81
2022/06/04 04:03:22;;;;;;;;;;;15.70;1.00;;;;;;5056336;28;19909;-81
2022/06/04 04:05:50;;;;;;;;;;;15.80;1.00;;;;;;5061283;28;20012;-81
2022/06/04 04:08:16;;;;;;;;;;;15.90;1.00;;;;;;5061431;28;19967;-81
2022/06/04 04:10:43;;;;;;;;;;;15.90;1.00;;;;;;5052158;28;19913;-81
2022/06/04 04:13:09;;;;;;;;;;;15.90;1.00;;;;;;5055680;28;19913;-81
2022/06/04 04:15:35;;;;;;;;;;;16.00;99.90;;;;;;5059280;28;19919;-81
2022/06/04 04:18:01;;;;;;;;;;;16.10;99.90;;;;;;5065847;28;20432;-81
2022/06/04 04:20:27;;;;;;;;;;;16.20;99.90;;;;;;5056874;28;20007;-81
2022/06/04 04:22:54;;;;;;;;;;;16.30;99.90;;;;;;5055302;28;19924;-81
2022/06/04 04:25:20;;;;;;;;;;;16.30;99.90;;;;;;5056866;28;20381;-82
2022/06/04 04:27:46;;;;;;;;;;;16.30;99.90;;;;;;5047322;28;19916;-81
2022/06/04 04:30:14;;;;;;;;;;;16.40;95.70;;;;;;5054170;28;19940;-81
2022/06/04 04:32:40;;;;;;;;;;;16.40;36.70;;;;;;5075958;28;20050;-81
2022/06/04 04:35:07;;;;;;;;;;;16.40;1.00;;;;;;5057865;28;19913;-82
2022/06/04 04:37:32;;;;;;;;;;;16.50;1.00;;;;;;5073449;28;19913;-81
2022/06/04 04:39:58;;;;;;;;;;;16.60;1.00;;;;;;5054134;28;19959;-81
2022/06/04 04:42:23;;;;;;;;;;;16.70;1.00;;;;;;5042870;28;20027;-81
2022/06/04 04:44:49;;;;;;;;;;;16.80;1.00;;;;;;5059275;28;19909;-81
2022/06/04 04:47:15;;;;;;;;;;;16.80;1.00;;;;;;5055423;28;20147;-81
2022/06/04 04:49:40;;;;;;;;;;;16.90;1.00;;;;;;5057616;28;19909;-81
2022/06/04 04:52:06;;;;;;;;;;;17.00;1.00;;;;;;5047160;28;19908;-81
2022/06/04 04:54:32;;;;;;;;;;;17.00;1.00;;;;;;5054163;28;19913;-82
2022/06/04 04:56:58;;;;;;;;;;;17.10;1.00;;;;;;5057660;28;19912;-81
2022/06/04 04:59:23;;;;;;;;;;;17.30;1.00;;;;;;5042731;28;20464;-81
2022/06/04 05:01:49;;;;;;;;;;;17.40;1.00;;;;;;5055701;28;19999;-81
2022/06/04 05:04:15;;;;;;;;;;;17.50;99.90;;;;;;5054374;28;19921;-81
2022/06/04 05:06:40;;;;;;;;;;;17.60;99.90;;;;;;5048248;28;19917;-82
2022/06/04 05:09:06;;;;;;;;;;;17.60;99.90;;;;;;5051622;28;19948;-81
2022/06/04 05:11:32;;;;;;;;;;;17.60;99.90;;;;;;5050789;28;19915;-81
2022/06/04 05:13:58;;;;;;;;;;;17.60;99.90;;;;;;5056926;28;19920;-82
2022/06/04 05:16:26;;;;;;;;;;;17.70;99.90;;;;;;5052587;28;19916;-81
2022/06/04 05:18:51;;;;;;;;;;;17.80;99.90;;;;;;5046560;28;20300;-81
2022/06/04 05:21:19;;;;;;;;;;;17.80;99.90;;;;;;5055267;28;20031;-81
2022/06/04 05:23:45;;;;;;;;;;;17.90;99.90;;;;;;5065926;28;19956;-82
2022/06/04 05:26:10;;;;;;;;;;;18.10;99.90;;;;;;5072261;28;19939;-82
2022/06/04 05:28:36;;;;;;;;;;;18.10;99.90;;;;;;5065734;28;19913;-81
2022/06/04 05:31:02;;;;;;;;;;;18.10;99.90;;;;;;5048644;28;19927;-81
2022/06/04 05:33:28;;;;;;;;;;;18.10;99.90;;;;;;5058290;28;20281;-83
2022/06/04 05:35:53;;;;;;;;;;;18.10;99.90;;;;;;5062281;28;19962;-80
2022/06/04 05:38:19;;;;;;;;;;;18.10;99.90;;;;;;5069869;28;19935;-80
2022/06/04 05:40:44;;;;;;;;;;;18.20;99.90;;;;;;5062058;28;19921;-79
2022/06/04 05:43:10;;;;;;;;;;;18.30;99.90;;;;;;5070800;28;19979;-80
2022/06/04 05:45:35;;;;;;;;;;;18.30;99.90;;;;;;5064631;28;19913;-80
2022/06/04 05:48:01;;;;;;;;;;;18.40;99.90;;;;;;5060457;28;19913;-80
2022/06/04 05:50:26;;;;;;;;;;;18.50;99.90;;;;;;5062768;28;19920;-80
2022/06/04 05:52:52;;;;;;;;;;;18.50;99.90;;;;;;5064030;28;20370;-80
2022/06/04 05:55:18;;;;;;;;;;;18.50;99.90;;;;;;5072223;28;20039;-80
2022/06/04 05:57:43;;;;;;;;;;;18.60;99.90;;;;;;5062983;28;20385;-80
2022/06/04 06:00:09;;;;;;;;;;;18.70;99.90;;;;;;5070171;28;19913;-81
2022/06/04 06:02:35;;;;;;;;;;;18.80;99.90;;;;;;5073591;28;19913;-80
2022/06/04 06:05:01;;;;;;;;;;;18.90;99.90;;;;;;5071262;28;19913;-80
2022/06/04 06:07:26;;;;;;;;;;;19.00;99.90;;;;;;5072484;28;19923;-80
2022/06/04 06:09:52;;;;;;;;;;;19.30;99.90;;;;;;5059508;28;19938;-80
2022/06/04 06:12:17;;;;;;;;;;;19.40;99.90;;;;;;5056399;28;20424;-80
2022/06/04 06:14:43;;;;;;;;;;;19.70;99.90;;;;;;5061322;28;19964;-80
2022/06/04 06:17:09;;;;;;;;;;;20.10;99.90;;;;;;5056483;28;19912;-80
2022/06/04 06:19:34;;;;;;;;;;;20.40;99.90;;;;;;5071051;28;19935;-81
2022/06/04 06:22:00;;;;;;;;;;;20.60;99.90;;;;;;5113512;22;19924;-84
2022/06/04 06:24:25;;;;;;;;;;;20.90;99.90;;;;;;5077632;28;19912;-83
2022/06/04 06:26:53;;;;;;;;;;;20.90;99.90;;;;;;5077990;28;19920;-83
2022/06/04 06:29:19;;;;;;;;;;;20.90;99.90;;;;;;5078611;28;19916;-83
2022/06/04 06:31:44;;;;;;;;;;;21.10;99.90;;;;;;5077844;28;20143;-82
2022/06/04 06:34:10;;;;;;;;;;;21.40;99.90;;;;;;5076431;28;19919;-82
2022/06/04 06:36:36;;;;;;;;;;;21.20;99.90;;;;;;5070786;28;19919;-82
2022/06/04 06:39:01;;;;;;;;;;;21.20;99.90;;;;;;5076445;28;19952;-83
2022/06/04 06:41:27;;;;;;;;;;;21.10;99.90;;;;;;5073644;28;19912;-83
2022/06/04 06:43:54;;;;;;;;;;;21.00;99.90;;;;;;5079319;28;19967;-82
2022/06/04 06:46:27;;;;;;;;;;;21.00;99.90;;;;;;5069382;28;19916;-82
2022/06/04 06:49:13;;;;;;;;;;;21.10;99.90;;;;;;5075863;28;19920;-83
2022/06/04 06:51:41;;;;;;;;;;;21.30;99.90;;;;;;5072288;28;20437;-83
2022/06/04 06:54:06;;;;;;;;;;;21.30;99.90;;;;;;5073653;28;19908;-83
2022/06/04 06:56:34;;;;;;;;;;;21.40;99.90;;;;;;5073880;28;19916;-83
2022/06/04 06:59:00;;;;;;;;;;;21.50;99.90;;;;;;5075958;28;19915;-82
2022/06/04 07:01:26;;;;;;;;;;;21.80;99.90;;;;;;5072675;28;19947;-83
2022/06/04 07:03:52;;;;;;;;;;;22.50;99.90;;;;;;5073829;28;20456;-84
2022/06/04 07:06:27;;;;;;;;;;;23.20;99.90;;;;;;5076381;28;19923;-83
2022/06/04 07:08:53;;;;;;;;;;;23.40;99.90;;;;;;5073317;28;19927;-83
2022/06/04 07:11:19;;;;;;;;;;;23.90;99.90;;;;;;5067175;28;19913;-83
2022/06/04 07:13:44;;;;;;;;;;;24.20;99.90;;;;;;5076784;28;19912;-83
2022/06/04 07:16:10;;;;;;;;;;;24.60;99.90;;;;;;5067395;28;19921;-85
2022/06/04 07:18:35;;;;;;;;;;;25.10;99.90;;;;;;5074152;28;20004;-84
2022/06/04 07:21:04;;;;;;;;;;;25.10;99.90;;;;;;5068592;28;19923;-84
2022/06/04 07:23:33;;;;;;;;;;;24.50;99.90;;;;;;5073475;28;19920;-84
2022/06/04 07:26:00;;;;;;;;;;;24.40;99.90;;;;;;5076382;28;20352;-85
2022/06/04 07:28:25;;;;;;;;;;;24.10;99.90;;;;;;5074310;28;19908;-84
2022/06/04 07:30:51;;;;;;;;;;;24.00;99.90;;;;;;5075712;28;19990;-84
2022/06/04 07:33:16;;;;;;;;;;;24.20;99.90;;;;;;5073120;28;19922;-85
2022/06/04 07:35:46;;;;;;;;;;;24.20;99.90;;;;;;5075836;28;19912;-84
2022/06/04 07:38:12;;;;;;;;;;;24.20;99.90;;;;;;5073666;28;20027;-84
2022/06/04 07:40:37;;;;;;;;;;;23.90;99.90;;;;;;5077115;28;19985;-84
2022/06/04 07:43:03;;;;;;;;;;;23.50;99.90;;;;;;5069318;28;19925;-84
2022/06/04 07:45:33;;;;;;;;;;;23.30;99.90;;;;;;5071827;28;19912;-84
2022/06/04 07:47:59;;;;;;;;;;;23.30;99.90;;;;;;5075336;28;19916;-84
2022/06/04 07:50:24;;;;;;;;;;;23.30;99.90;;;;;;5081879;28;19913;-84
2022/06/04 07:52:50;;;;;;;;;;;23.60;99.90;;;;;;5072271;28;19913;-84
2022/06/04 07:55:15;;;;;;;;;;;23.90;99.90;;;;;;5081442;28;19912;-84
2022/06/04 07:57:41;;;;;;;;;;;24.10;99.90;;;;;;5070630;28;20007;-86
2022/06/04 08:00:07;;;;;;;;;;;23.70;99.90;;;;;;5079271;28;19984;-84
2022/06/04 08:02:32;;;;;;;;;;;23.40;99.90;;;;;;5079729;28;19976;-84
2022/06/04 08:04:58;;;;;;;;;;;23.30;99.90;;;;;;5082267;28;19991;-83
2022/06/04 08:07:24;;;;;;;;;;;23.30;99.90;;;;;;5080375;28;19960;-84
2022/06/04 08:09:50;;;;;;;;;;;23.10;99.90;;;;;;5081784;28;19913;-83
2022/06/04 08:12:16;;;;;;;;;;;23.20;99.90;;;;;;5081738;28;19917;-84
2022/06/04 08:14:42;;;;;;;;;;;23.30;99.90;;;;;;5080180;28;19927;-83
2022/06/04 08:17:09;;;;;;;;;;;23.40;99.90;;;;;;5078331;28;19920;-84
2022/06/04 08:19:34;;;;;;;;;;;23.50;99.90;;;;;;5084573;28;19921;-84
2022/06/04 08:21:59;;;;;;;;;;;23.60;99.90;;;;;;5083045;28;20291;-84
2022/06/04 08:24:25;;;;;;;;;;;23.60;99.90;;;;;;5082881;28;19913;-84
2022/06/04 08:26:58;;;;;;;;;;;23.40;99.90;;;;;;5085218;28;19992;-84
2022/06/04 08:29:24;;;;;;;;;;;23.50;99.90;;;;;;5081842;28;19920;-84
2022/06/04 08:31:50;;;;;;;;;;;23.60;99.90;;;;;;5082264;28;19920;-84
2022/06/04 08:34:15;;;;;;;;;;;23.50;99.90;;;;;;5078197;28;20280;-83
2022/06/04 08:36:44;;;;;;;;;;;23.50;99.90;;;;;;5081948;28;19927;-83
2022/06/04 08:39:10;;;;;;;;;;;23.50;99.90;;;;;;5072287;28;19983;-84
2022/06/04 08:41:43;;;;;;;;;;;23.80;99.90;;;;;;5098646;28;19913;-84
2022/06/04 08:44:15;;;;;;;;;;;23.80;99.90;;;;;;5080060;28;19958;-84
2022/06/04 08:46:49;;;;;;;;;;;23.80;99.90;;;;;;5079061;28;19916;-83
2022/06/04 08:49:21;;;;;;;;;;;24.00;99.90;;;;;;5082169;28;19912;-83
2022/06/04 08:51:46;;;;;;;;;;;23.80;99.90;;;;;;5083291;28;19954;-83
2022/06/04 08:59:49;;;;;;;;;;;23.80;99.90;;;;;;5083578;28;19924;-84
2022/06/04 09:02:19;;;;;;;;;;;23.60;99.90;;;;;;5083447;28;19912;-84
2022/06/04 09:04:45;;;;;;;;;;;24.00;99.90;;;;;;5077456;28;19917;-84
2022/06/04 09:07:14;;;;;;;;;;;24.30;99.90;;;;;;5078166;28;19916;-84
2022/06/04 09:09:42;;;;;;;;;;;24.60;99.90;;;;;;5095360;28;19938;-85
2022/06/04 09:12:14;;;;;;;;;;;24.80;99.90;;;;;;5078172;28;19913;-84
2022/06/04 09:14:41;;;;;;;;;;;25.30;99.90;;;;;;5071831;28;19948;-84
2022/06/04 09:17:12;;;;;;;;;;;26.10;99.90;;;;;;5075893;28;20008;-84
2022/06/04 09:19:38;;;;;;;;;;;27.00;99.90;;;;;;5079706;28;20392;-85
2022/06/04 09:22:11;;;;;;;;;;;27.70;99.90;;;;;;5078830;28;19924;-85
2022/06/04 09:24:37;;;;;;;;;;;29.10;99.90;;;;;;5081791;28;19924;-86
2022/06/04 09:27:26;;;;;;;;;;;30.70;99.90;;;;;;5077344;28;19921;-85
2022/06/04 09:30:04;;;;;;;;;;;31.30;99.90;;;;;;5081962;28;19916;-84
2022/06/04 09:32:52;;;;;;;;;;;31.90;99.90;;;;;;5075001;28;19991;-85
2022/06/04 09:35:21;;;;;;;;;;;33.60;99.90;;;;;;5074285;28;19913;-86
2022/06/04 09:37:48;;;;;;;;;;;34.90;99.90;;;;;;5076969;28;20043;-85
2022/06/04 09:40:24;;;;;;;;;;;36.00;99.90;;;;;;5094584;28;19972;-86
2022/06/04 09:42:50;;;;;;;;;;;35.20;99.90;;;;;;5082537;28;19917;-85
2022/06/04 09:45:26;;;;;;;;;;;34.40;99.90;;;;;;5081529;28;19912;-85
2022/06/04 09:47:54;;;;;;;;;;;35.10;99.90;;;;;;5081450;28;19947;-84
2022/06/04 09:50:24;;;;;;;;;;;35.10;99.90;;;;;;5077072;28;20395;-85
2022/06/04 09:53:16;;;;;;;;;;;35.20;99.90;;;;;;5071282;28;19927;-85
2022/06/04 09:55:50;;;;;;;;;;;36.40;99.90;;;;;;5072989;28;19966;-85
2022/06/04 09:58:18;;;;;;;;;;;36.60;99.90;;;;;;5077778;28;19934;-84
2022/06/04 10:00:54;;;;;;;;;;;37.50;99.90;;;;;;5072624;28;19935;-84
2022/06/04 10:03:19;;;;;;;;;;;37.70;99.90;;;;;;5073455;28;19913;-85
2022/06/04 10:05:48;;;;;;;;;;;37.70;99.90;;;;;;5070574;28;19943;-85
2022/06/04 10:08:14;;;;;;;;;;;38.20;99.90;;;;;;5078504;28;19935;-85
2022/06/04 10:10:44;;;;;;;;;;;38.20;99.90;;;;;;5073213;28;19920;-84
2022/06/04 10:15:54;;;;;;;;;;;38.00;99.90;;;;;;5073559;28;19966;-84
2022/06/04 10:18:29;;;;;;;;;;;38.10;99.90;;;;;;5070799;28;19916;-84
2022/06/04 10:20:56;;;;;;;;;;;38.90;99.90;;;;;;5072487;28;19924;-84
2022/06/04 10:23:21;;;;;;;;;;;39.50;99.90;;;;;;5076477;28;20299;-85
2022/06/04 10:26:02;;;;;;;;;;;39.70;99.90;;;;;;5074704;28;19995;-85
2022/06/04 10:28:30;;;;;;;;;;;39.70;99.90;;;;;;5082828;28;19917;-85
2022/06/04 10:31:07;;;;;;;;;;;39.70;99.90;;;;;;5061222;28;20330;-85
2022/06/04 10:33:35;;;;;;;;;;;39.60;99.90;;;;;;5082133;28;19920;-85
2022/06/04 10:36:11;;;;;;;;;;;39.50;99.90;;;;;;5085119;28;19921;-85
2022/06/04 10:38:36;;;;;;;;;;;39.50;99.90;;;;;;5067452;28;19920;-85
2022/06/04 10:41:30;;;;;;;;;;;39.40;99.90;;;;;;5069797;28;19921;-85
2022/06/04 10:44:05;;;;;;;;;;;39.10;99.90;;;;;;5065660;28;19932;-85
2022/06/04 10:46:46;;;;;;;;;;;38.40;99.90;;;;;;5071606;28;19955;-85
2022/06/04 10:49:12;;;;;;;;;;;37.40;99.90;;;;;;5072825;28;19920;-85
2022/06/04 10:51:40;;;;;;;;;;;36.00;99.20;;;;;;5073970;28;20193;-85
2022/06/04 10:54:26;;;;;;;;;;;35.50;99.40;;;;;;5090787;28;19922;-84
2022/06/04 10:56:51;;;;;;;;;;;34.70;98.30;;;;;;5069390;28;19917;-85
2022/06/04 10:59:32;;;;;;;;;;;35.00;99.60;;;;;;5075189;28;19920;-85
2022/06/04 11:02:14;;;;;;;;;;;35.40;99.90;;;;;;5071161;28;20011;-85
2022/06/04 11:04:57;;;;;;;;;;;35.60;99.90;;;;;;5071406;28;19971;-85
2022/06/04 11:07:35;;;;;;;;;;;36.10;99.90;;;;;;5083888;28;19924;-85
2022/06/04 11:10:04;;;;;;;;;;;35.90;99.90;;;;;;5068777;28;19946;-85
2022/06/04 11:12:41;;;;;;;;;;;35.70;99.90;;;;;;5071098;28;20159;-85
2022/06/04 11:15:11;;;;;;;;;;;35.10;99.90;;;;;;5072183;28;19927;-85
2022/06/04 11:17:44;;;;;;;;;;;35.10;99.90;;;;;;5070856;28;19989;-85
2022/06/04 11:20:11;;;;;;;;;;;35.10;99.90;;;;;;5062883;28;19919;-85
2022/06/04 11:22:38;;;;;;;;;;;36.20;99.90;;;;;;5063043;28;20313;-85
2022/06/04 11:25:14;;;;;;;;;;;36.40;99.90;;;;;;5071482;28;19919;-85
2022/06/04 11:27:42;;;;;;;;;;;37.60;99.90;;;;;;5064694;28;19920;-85
2022/06/04 11:30:16;;;;;;;;;;;38.30;99.90;;;;;;5064000;28;20110;-85
2022/06/04 11:32:44;;;;;;;;;;;38.50;99.90;;;;;;5060781;28;19917;-85
2022/06/04 11:35:16;;;;;;;;;;;39.60;99.90;;;;;;5067620;28;20392;-85
2022/06/04 11:37:51;;;;;;;;;;;40.00;99.90;;;;;;5067488;28;20008;-86
2022/06/04 11:40:17;;;;;;;;;;;39.50;99.90;;;;;;5061049;28;19912;-85
2022/06/04 11:42:51;;;;;;;;;;;40.00;99.90;;;;;;5069639;28;19982;-87
2022/06/04 11:45:24;;;;;;;;;;;39.50;99.90;;;;;;5061051;28;19999;-86
2022/06/04 11:47:53;;;;;;;;;;;39.60;99.90;;;;;;5060255;28;19922;-85
2022/06/04 11:50:27;;;;;;;;;;;39.60;99.90;;;;;;5071449;28;20336;-85
2022/06/04 11:53:06;;;;;;;;;;;39.00;99.90;;;;;;5088115;28;19920;-85
2022/06/04 11:55:51;;;;;;;;;;;38.20;99.50;;;;;;5068527;28;20011;-85
2022/06/04 11:58:25;;;;;;;;;;;37.90;98.80;;;;;;5066934;28;19913;-84
2022/06/04 12:00:53;;;;;;;;;;;37.90;98.60;;;;;;5072098;28;20522;-83
2022/06/04 12:03:41;;;;;;;;;;;38.00;99.40;;;;;;5080484;28;19928;-83
2022/06/04 12:06:11;;;;;;;;;;;37.30;98.00;;;;;;5077874;28;19987;-83
2022/06/04 12:08:38;;;;;;;;;;;36.80;97.50;;;;;;5079570;28;19963;-83
2022/06/04 12:11:06;;;;;;;;;;;36.90;98.20;;;;;;5073268;28;19919;-84
2022/06/04 12:13:44;;;;;;;;;;;36.00;97.00;;;;;;5078773;28;19912;-83
2022/06/04 12:16:15;;;;;;;;;;;36.00;97.50;;;;;;5078664;28;19916;-84
2022/06/04 12:18:56;;;;;;;;;;;35.10;96.70;;;;;;5087608;28;19924;-84
2022/06/04 12:24:26;;;;;;;;;;;35.60;98.90;;;;;;5052696;28;19928;-79
2022/06/04 12:27:03;;;;;;;;;;;35.50;99.30;;;;;;5044077;28;19920;-79
2022/06/04 12:29:28;;;;;;;;;;;35.90;99.90;;;;;;5068313;28;19962;-79
2022/06/04 12:32:23;;;;;;;;;;;35.30;99.80;;;;;;5066203;28;19921;-79
2022/06/04 12:34:50;;;;;;;;;;;35.20;99.90;;;;;;5043721;28;20001;-79
2022/06/04 12:37:29;;;;;;;;;;;35.00;99.90;;;;;;5065760;28;19913;-79
2022/06/04 12:39:55;;;;;;;;;;;34.50;99.70;;;;;;5033805;28;19929;-80
2022/06/04 12:42:22;;;;;;;;;;;34.70;99.90;;;;;;5038125;28;19920;-80
2022/06/04 12:44:56;;;;;;;;;;;34.90;99.90;;;;;;5037320;28;19983;-81
2022/06/04 12:47:23;;;;;;;;;;;34.90;99.90;;;;;;5037864;28;20019;-80
2022/06/04 12:49:55;;;;;;;;;;;34.80;99.90;;;;;;5036061;28;19921;-80
2022/06/04 12:52:20;;;;;;;;;;;34.90;99.90;;;;;;5038438;28;19913;-80
2022/06/04 12:54:47;;;;;;;;;;;33.50;99.90;;;;;;5069546;28;19913;-80
2022/06/04 12:57:16;;;;;;;;;;;33.10;99.90;;;;;;5052519;28;20328;-80
2022/06/04 12:59:46;;;;;;;;;;;32.50;99.90;;;;;;5069716;28;19913;-80
2022/06/04 13:02:31;;;;;;;;;;;32.60;99.90;;;;;;5051886;28;19920;-80
2022/06/04 13:05:18;;;;;;;;;;;33.00;99.90;;;;;;5036822;28;20444;-80
2022/06/04 13:08:02;;;;;;;;;;;32.90;99.90;;;;;;5052292;28;19924;-79
2022/06/04 13:10:36;;;;;;;;;;;32.40;99.90;;;;;;5051800;28;19913;-80
2022/06/04 13:13:02;;;;;;;;;;;32.40;99.90;;;;;;5052539;28;20347;-80
2022/06/04 13:15:49;;;;;;;;;;;32.30;99.90;;;;;;5070314;28;19916;-80
2022/06/04 13:18:20;;;;;;;;;;;32.30;99.90;;;;;;5054134;28;19994;-80
2022/06/04 13:21:08;;;;;;;;;;;32.80;99.90;;;;;;5034881;28;19913;-80
2022/06/04 13:23:42;;;;;;;;;;;32.70;99.90;;;;;;5032666;28;20056;-80
2022/06/04 13:26:07;;;;;;;;;;;32.30;99.90;;;;;;5051256;28;19917;-80
2022/06/04 13:28:35;;;;;;;;;;;32.00;99.90;;;;;;5069226;28;19920;-79
2022/06/04 13:31:01;;;;;;;;;;;32.00;99.90;;;;;;5036266;28;20224;-79
2022/06/04 13:33:27;;;;;;;;;;;31.80;99.90;;;;;;5035770;28;20070;-80
2022/06/04 13:35:53;;;;;;;;;;;31.50;99.90;;;;;;5038256;28;19945;-79
2022/06/04 13:38:21;;;;;;;;;;;31.60;99.90;;;;;;5035312;28;19913;-79
2022/06/04 13:40:47;;;;;;;;;;;31.40;99.90;;;;;;5066124;28;19913;-79
2022/06/04 13:43:13;;;;;;;;;;;31.50;99.90;;;;;;5035029;28;19975;-79
2022/06/04 13:45:40;;;;;;;;;;;31.70;99.90;;;;;;5035892;28;19921;-80
2022/06/04 13:48:32;;;;;;;;;;;31.80;99.90;;;;;;5035457;28;19929;-76
2022/06/04 13:50:57;;;;;;;;;;;31.70;99.90;;;;;;5026969;28;19920;-77
2022/06/04 13:53:27;;;;;;;;;;;31.30;99.90;;;;;;5031315;28;20468;-76
2022/06/04 13:55:55;;;;;;;;;;;30.90;99.90;;;;;;5061618;28;20008;-76
2022/06/04 13:58:47;;;;;;;;;;;30.60;99.90;;;;;;5056305;28;20029;-77
2022/06/04 14:01:22;;;;;;;;;;;30.20;99.90;;;;;;5042302;28;20327;-77
2022/06/04 14:03:49;;;;;;;;;;;30.00;99.90;;;;;;5028099;28;20301;-77
2022/06/04 14:06:18;;;;;;;;;;;29.40;99.90;;;;;;5033139;28;19921;-77
2022/06/04 14:08:48;;;;;;;;;;;29.20;99.90;;;;;;5028300;28;19920;-77
2022/06/04 14:11:19;;;;;;;;;;;29.00;99.90;;;;;;5046104;28;20350;-77
2022/06/04 14:14:00;;;;;;;;;;;29.10;99.90;;;;;;5028431;28;19933;-77
2022/06/04 14:16:44;;;;;;;;;;;29.20;99.90;;;;;;5063829;28;19967;-77
2022/06/04 14:19:29;;;;;;;;;;;29.50;99.90;;;;;;5044103;28;19936;-77
2022/06/04 14:22:07;;;;;;;;;;;29.70;99.90;;;;;;5043679;28;19924;-77
2022/06/04 14:24:32;;;;;;;;;;;29.70;99.90;;;;;;5062490;28;20381;-77
2022/06/04 14:26:58;;;;;;;;;;;29.50;99.90;;;;;;5046534;28;19960;-77
2022/06/04 14:29:26;;;;;;;;;;;29.40;99.90;;;;;;5046208;28;20400;-77
2022/06/04 14:32:31;;;;;;;;;;;29.40;99.90;;;;;;5064027;28;19956;-77
2022/06/04 14:34:57;;;;;;;;;;;29.40;99.90;;;;;;4993952;28;19967;-76
2022/06/04 14:37:27;;;;;;;;;;;29.30;99.90;;;;;;4994305;28;19921;-78
2022/06/04 14:39:54;;;;;;;;;;;29.40;99.90;;;;;;5009447;28;19920;-78
2022/06/04 14:42:37;;;;;;;;;;;29.30;99.90;;;;;;5062941;28;19929;-77
2022/06/04 14:45:09;;;;;;;;;;;29.20;99.90;;;;;;5062810;28;19913;-77
2022/06/04 14:47:34;;;;;;;;;;;29.20;99.90;;;;;;5062490;28;20364;-77
2022/06/04 14:50:19;;;;;;;;;;;29.20;99.90;;;;;;5062370;28;19913;-77
2022/06/04 14:52:49;;;;;;;;;;;29.20;99.90;;;;;;5031340;28;19968;-77